Buffalo, Indiana
Current Conditions -  °F | °C
As of 2:15 PM on Tuesday 21 Oct 2014 (Local Time) from KMCX Reporting Station
Overcast Overcast  
Wind Chill: 54°   Ceiling: 4400
Heat Index: 54°   Visibility: 10mi
Dew Point: 45°   Wind: 10mph
Humidity: 73%   Direction: 350°N
Pressure: 30.11"   Gusts: 22mph
Location:  40.88°N, 86.75°W
Report Text: KMCX 211815Z AUTO 35009G19KT 10SM SCT027 BKN044 OVC050 12/07 A3011 RMK AO2 T01200072
Loading
Personal Weather Stations






























Interactive Weather Map
Tropical Storm Tracking
New forecast layout! Learn more

10-Day Weather Forecast

Advertisements
Track Severe Weather on mobile